Darby, MT (59829)

6:04 AM MST on February 26, 2017 (GMT -0700)
West Hamilton Nighthawk | | Change Station

Elev 3848 ft 46.24 °N, 114.20 °W | Updated 28 seconds ago

Overcast
Overcast
25.1 °F
Feels Like 25 °F
N
3.0
Wind Variable Wind from WNW

Today
High -- | Low -- °F
--% Chance of Precip.
Yesterday
High -- | Low -- °F
Precip. -- in
Pressure 29.84 in
Visibility 10.0 miles
Clouds Overcast 7000 ft
Windchill 25 °F
Dew Point 18 °F
Humidity 76%
Rainfall 0.00 in
Snow Depth Not available.
7:20 AM 6:19 PM
Waning Crescent, 0% visible
METAR KMSO 261253Z AUTO 00000KT 10SM OVC070 M04/M05 A2974 RMK AO2 SLP105 T10391050
Pressure 29.84 in
Visibility 10.0 miles
Clouds Overcast 7000 ft
Windchill 25 °F
Dew Point 18 °F
Humidity 76%
Rainfall 0.00 in
Snow Depth Not available.
7:20 AM 6:19 PM
Waning Crescent, 0% visible
METAR KMSO 261253Z AUTO 00000KT 10SM OVC070 M04/M05 A2974 RMK AO2 SLP105 T10391050

Get Your Daily Forecast Email!

Thanks for signing up!

Be on the lookout for a verification email in your inbox.

You'll start receiving the daily forecast at 8 AM.

×

10-Day Weather Forecast

Almanac

Astronomy

Feb. 26, 2017 Rise Set
Actual Time
Civil Twilight
Nautical Twilight
Astronomical Twilight
Moon
Length of Visible Light
Length of Day
Tomorrow will be .
, % of the Moon is Illuminated

Today's Extremes

State Highs State Lows

Community

WunderPhotos

Upload Photos

1,962,540 photos uploaded!

WunderBlog® & News

Nearby

Air Quality

  Air Quality AQ Index Pollutant
Not available.

Snow Depth

Station Depth Elevation

Earthquake Activity

City Distance Mag. Time & Date
Minimum magnitude displayed is 2.5.

Coastal Water Temperatures

Place Temperature

Stations

Nearby Weather Stations

Station Location Temp. Windchill Dew Point Humidity Wind Precip. Elev Updated Type
                   

Watches & Warnings

There are currently no watches in effect.